createdAt,value
2019-01-24T19:42:13.015Z,40.00
2019-01-24T19:44:44.917Z,40.00
2019-01-24T19:47:16.852Z,39.27
2019-01-24T19:49:48.630Z,39.95
2019-01-24T19:52:20.358Z,38.44
2019-01-24T19:54:52.243Z,37.35
2019-01-24T19:57:24.035Z,36.32
2019-01-24T20:09:40.827Z,29.73
2019-01-24T20:12:12.827Z,29.73
2019-01-24T20:14:44.631Z,33.69
2019-01-24T20:17:16.664Z,37.35
2019-01-24T20:19:48.373Z,40.54
2019-01-24T20:22:21.536Z,42.62
2019-01-24T20:24:53.252Z,45.05
2019-01-24T20:27:24.969Z,47.92
2019-01-24T20:29:56.684Z,49.78
2019-01-24T20:32:28.358Z,51.12
2019-01-24T20:34:59.993Z,52.31
2019-01-24T20:37:31.757Z,53.12
2019-01-24T20:40:03.471Z,53.40
2019-01-24T20:42:35.253Z,53.91
2019-01-24T20:45:07.001Z,54.11
2019-01-24T20:47:38.707Z,54.13
2019-01-24T20:50:11.969Z,54.88
2019-01-24T20:52:44.825Z,55.13
2019-01-24T20:55:16.748Z,55.41
2019-01-24T20:57:48.488Z,55.89
2019-01-24T21:00:21.431Z,55.99
2019-01-24T21:02:53.428Z,56.39
2019-01-24T21:05:25.118Z,56.52
2019-01-24T21:07:56.777Z,56.74
2019-01-24T21:10:28.531Z,56.81
2019-01-24T21:13:01.216Z,57.27
2019-01-24T21:15:32.917Z,57.22
2019-01-24T21:18:04.574Z,57.44
2019-01-24T21:20:36.461Z,57.67
2019-01-24T21:23:08.251Z,58.20
2019-01-24T21:25:39.945Z,58.43
2019-01-24T21:28:11.773Z,59.01
2019-01-24T21:30:43.822Z,59.59
2019-01-24T21:33:15.491Z,59.87
2019-01-24T21:35:47.152Z,60.21
2019-01-24T21:38:18.807Z,60.55
2019-01-24T21:40:50.464Z,60.58
2019-01-24T21:43:22.113Z,60.75
2019-01-24T21:45:53.788Z,61.10
2019-01-24T21:48:25.438Z,61.66
2019-01-24T21:50:57.129Z,62.02
2019-01-24T22:05:30.808Z,63.16
2019-01-24T22:12:41.283Z,63.17
2019-01-24T22:44:00.680Z,61.77
2019-01-24T22:49:57.043Z,61.80
2019-01-24T22:52:28.776Z,61.39
2019-01-24T22:58:36.106Z,61.86
2019-01-24T23:08:09.448Z,62.26
2019-01-24T23:10:41.308Z,61.80
2019-01-24T23:13:13.109Z,62.09
2019-01-24T23:15:44.823Z,62.30
2019-01-24T23:18:19.005Z,62.22
2019-01-24T23:20:50.735Z,62.53
2019-01-24T23:23:23.873Z,62.10
2019-01-24T23:25:55.517Z,62.22
2019-01-24T23:28:27.199Z,62.37
2019-01-24T23:30:58.866Z,61.94
2019-01-24T23:33:49.059Z,61.86
2019-01-24T23:36:21.168Z,62.07
2019-01-24T23:40:12.438Z,62.49
2019-01-24T23:46:22.357Z,62.29
